Latest Coastal Weather Observations for Broome Port

IDW60701

Issued at 11:52 pm WST Tuesday 26 July 2016 (issued every 10 minutes, with the page automatically refreshed every 10 minutes)

About coastal observations | Map of coastal stations | Coastal observations for WA | Marine services | Other Formats
Station Details ID: 003102 Name: BROOME NTC AWS Lat: -18.00 Lon: 122.22 Height: 0.0 m
Data from the previous 72 hours. | See also: Recent months for locations in Western Australia
Date/Time
WST
Temp
°C
Wind Pressure Rain since
9am
mm
Weather Cloud Vis
km
Sea
Height
m
Swell
Dir  Spd
kts
Gust
kts
hPa Trend Height
m
Period
s
Dir
26/11:30pm 25.5 SSE 19 23 1013.6 - - - - - - - - -
26/11:00pm 25.4 SSE 18 22 1013.7 - - - - - - - - -
26/10:30pm 25.8 SSE 17 19 1013.7 - - - - - - - - -
26/10:00pm 25.8 S 17 20 1013.8 - - - - - - - - -
26/09:30pm 25.9 S 17 18 1013.6 - - - - - - - - -
26/09:00pm 25.6 S 14 16 1013.6 - - - - - - - - -
26/08:30pm 26.2 S 14 16 1013.4 - - - - - - - - -
26/08:00pm 26.6 S 12 13 1013.3 - - - - - - - - -
26/07:30pm 27.2 SSW 11 13 1013.1 - - - - - - - - -
26/07:00pm 26.9 SW 11 13 1012.8 - - - - - - - - -
26/06:30pm 25.0 WSW 10 14 1012.4 - - - - - - - - -
26/06:00pm 24.9 W 9 13 1012.1 - - - - - - - - -
26/05:30pm 24.9 W 12 16 1011.8 - - - - - - - - -
26/05:00pm 26.3 W 13 16 1011.4 - - - - - - - - -
26/04:30pm 26.6 W 12 16 1011.2 - - - - - - - - -
26/04:00pm 26.6 W 10 16 1011.1 - - - - - - - - -
26/03:30pm 27.3 WSW 11 12 1011.0 - - - - - - - - -
26/03:00pm 27.2 WSW 10 11 1011.1 - - - - - - - - -
26/02:30pm 27.8 WSW 9 10 1011.2 - - - - - - - - -
26/02:00pm 28.1 WSW 9 10 1011.5 - - - - - - - - -
26/01:30pm 28.0 SW 8 9 1011.7 - - - - - - - - -
26/01:00pm 27.5 SSW 7 9 1012.1 - - - - - - - - -
26/12:30pm 26.8 SSW 7 8 1012.6 - - - - - - - - -
26/12:00pm 27.3 SSW 7 8 1013.2 - - - - - - - - -
26/11:30am 26.8 SSW 8 9 1013.8 - - - - - - - - -
26/11:00am 25.9 S 5 8 1014.3 - - - - - - - - -
26/10:30am 25.0 S 6 9 1014.7 - - - - - - - - -
26/10:00am 24.2 SSE 6 9 1015.1 - - - - - - - - -
26/09:30am 23.8 SE 10 12 1015.4 - - - - - - - - -
26/09:00am 23.4 SSE 11 14 1015.7 - - - - - - - - -
26/08:30am 22.2 SSE 11 13 1015.9 - - - - - - - - -
26/08:00am 22.5 SE 13 15 1015.4 - - - - - - - - -
26/07:30am 22.6 SE 11 13 1015.1 - - - - - - - - -
26/07:00am 22.8 SE 11 13 1015.1 - - - - - - - - -
26/06:30am 23.0 SE 12 15 1014.9 - - - - - - - - -
26/06:00am 23.2 SE 14 17 1014.6 - - - - - - - - -
26/05:30am 23.5 SSE 11 13 1014.1 - - - - - - - - -
26/05:00am 24.0 SSE 14 17 1013.9 - - - - - - - - -
26/04:30am 24.4 SSE 14 16 1013.6 - - - - - - - - -
26/04:00am 24.3 S 9 9 1013.3 - - - - - - - - -
26/03:30am 24.8 SSE 7 8 1013.0 - - - - - - - - -
26/03:00am 25.0 SSE 8 9 1013.0 - - - - - - - - -
26/02:30am 24.8 SE 7 8 1013.1 - - - - - - - - -
26/02:00am 24.9 SE 7 8 1013.2 - - - - - - - - -
26/01:30am 24.6 SE 5 6 1013.3 - - - - - - - - -
26/01:00am 24.7 SE 6 7 1013.5 - - - - - - - - -
26/12:30am 24.5 SSE 5 7 1013.7 - - - - - - - - -
26/12:00am 24.5 SSE 5 7 1013.6 - - - - - - - - -
 
Date/Time
WST
Temp
°C
Wind Pressure Rain since
9am
mm
Weather Cloud Vis
km
Sea
Height
m
Swell
Dir  Spd
kts
Gust
kts
hPa Trend Height
m
Period
s
Dir
25/11:30pm 24.4 SSE 6 8 1013.8 - - - - - - - - -
25/11:00pm 24.7 S 10 12 1013.7 - - - - - - - - -
25/10:30pm 25.1 S 12 14 1013.8 - - - - - - - - -
25/10:00pm 25.3 S 13 15 1013.9 - - - - - - - - -
25/09:30pm 25.6 S 13 15 1013.9 - - - - - - - - -
25/09:00pm 26.1 S 15 16 1013.9 - - - - - - - - -
25/08:30pm 26.4 S 15 17 1013.7 - - - - - - - - -
25/08:00pm 27.1 SSW 16 18 1013.6 - - - - - - - - -
25/07:30pm 28.6 SSW 15 16 1013.1 - - - - - - - - -
25/07:00pm 27.3 SSW 15 16 1012.6 - - - - - - - - -
25/06:30pm 26.5 WSW 15 17 1012.2 - - - - - - - - -
25/06:00pm 25.5 WSW 15 17 1011.9 - - - - - - - - -
25/05:30pm 25.5 WSW 15 18 1011.6 - - - - - - - - -
25/05:00pm 25.6 WSW 16 18 1011.4 - - - - - - - - -
25/04:30pm 25.4 WSW 15 18 1011.1 - - - - - - - - -
25/04:00pm 25.9 WSW 15 17 1010.9 - - - - - - - - -
25/03:30pm 26.6 WSW 12 14 1010.8 - - - - - - - - -
25/03:00pm 27.3 WSW 11 13 1010.8 - - - - - - - - -
25/02:30pm 25.9 WSW 11 14 1011.1 - - - - - - - - -
25/02:00pm 26.9 WSW 7 9 1011.3 - - - - - - - - -
25/01:30pm 27.9 SW 5 6 1011.7 - - - - - - - - -
25/01:00pm 28.1 SSW 3 4 1012.2 - - - - - - - - -
25/12:30pm 27.2 S 5 7 1012.9 - - - - - - - - -
25/12:00pm 26.8 SSE 6 7 1013.6 - - - - - - - - -
25/11:30am 26.1 SSE 6 7 1014.1 - - - - - - - - -
25/11:00am 25.9 SSE 9 10 1014.7 - - - - - - - - -
25/10:30am 25.0 SSE 8 9 1015.1 - - - - - - - - -
25/10:00am 23.8 SSE 9 10 1015.4 - - - - - - - - -
25/09:30am 23.1 SE 11 12 1015.6 - - - - - - - - -
25/09:00am 22.4 SE 13 15 1015.9 - - - - - - - - -
25/08:30am 21.6 SE 15 17 1015.9 - - - - - - - - -
25/08:00am 20.7 ESE 16 20 1015.4 - - - - - - - - -
25/07:30am 20.5 ESE 16 19 1015.2 - - - - - - - - -
25/07:00am 20.7 SE 14 17 1015.1 - - - - - - - - -
25/06:30am 21.3 SE 15 17 1015.0 - - - - - - - - -
25/06:00am 21.7 SE 15 18 1014.7 - - - - - - - - -
25/05:30am 21.8 SE 15 18 1014.5 - - - - - - - - -
25/05:00am 21.8 SE 15 18 1013.9 - - - - - - - - -
25/04:30am 21.9 SE 12 15 1013.8 - - - - - - - - -
25/04:00am 22.1 SE 13 16 1013.5 - - - - - - - - -
25/03:30am 22.2 SE 16 18 1013.6 - - - - - - - - -
25/03:00am 22.3 SE 16 19 1013.5 - - - - - - - - -
25/02:30am 22.6 SE 17 20 1013.3 - - - - - - - - -
25/02:00am 22.8 SSE 17 21 1013.5 - - - - - - - - -
25/01:30am 23.0 SSE 18 21 1013.5 - - - - - - - - -
25/01:00am 23.2 SSE 18 21 1013.8 - - - - - - - - -
25/12:30am 23.5 SSE 18 21 1014.1 - - - - - - - - -
25/12:00am 23.9 SSE 17 20 1014.2 - - - - - - - - -
 
Date/Time
WST
Temp
°C
Wind Pressure Rain since
9am
mm
Weather Cloud Vis
km
Sea
Height
m
Swell
Dir  Spd
kts
Gust
kts
hPa Trend Height
m
Period
s
Dir
24/11:30pm 24.3 SSE 17 19 1014.3 - - - - - - - - -
24/11:00pm 24.6 SSE 17 20 1014.3 - - - - - - - - -
24/10:30pm 24.7 SSE 17 19 1014.3 - - - - - - - - -
24/10:00pm 24.9 SSE 15 18 1014.3 - - - - - - - - -
24/09:30pm 25.7 SSE 15 19 1014.1 - - - - - - - - -
24/09:00pm 25.6 SSE 14 15 1013.9 - - - - - - - - -
24/08:30pm 26.3 S 15 16 1013.8 - - - - - - - - -
24/08:00pm 27.2 S 15 17 1013.6 - - - - - - - - -
24/07:30pm 28.7 S 16 17 1013.4 - - - - - - - - -
24/07:00pm 29.7 S 16 17 1012.8 - - - - - - - - -
24/06:30pm 29.4 SSE 14 15 1012.4 - - - - - - - - -
24/06:00pm 29.9 SSE 11 12 1011.9 - - - - - - - - -
24/05:30pm 30.7 SSE 10 11 1011.7 - - - - - - - - -
24/05:00pm 30.0 SSE 8 9 1011.4 - - - - - - - - -
24/04:30pm 30.8 SSE 9 10 1011.1 - - - - - - - - -
24/04:00pm 30.2 SSE 7 9 1011.0 - - - - - - - - -
24/03:30pm 29.6 SSE 8 9 1010.9 - - - - - - - - -
24/03:00pm 29.3 SSE 8 10 1010.9 - - - - - - - - -
24/02:30pm 29.4 SE 12 13 1011.1 - - - - - - - - -
24/02:00pm 28.2 SE 11 12 1011.4 - - - - - - - - -
24/01:30pm 28.9 SE 13 14 1011.7 - - - - - - - - -
24/01:00pm 27.8 ESE 13 15 1012.1 - - - - - - - - -
24/12:30pm 26.9 SE 10 12 1012.7 - - - - - - - - -
24/12:00pm 26.8 SE 9 10 1013.4 - - - - - - - - -
24/11:30am 26.4 SSE 13 14 1013.9 - - - - - - - - -
24/11:00am 25.2 SSE 12 13 1014.4 - - - - - - - - -
24/10:30am 24.7 SSE 12 13 1015.1 - - - - - - - - -
24/10:00am 24.5 SE 13 15 1015.5 - - - - - - - - -
24/09:30am 23.5 SE 13 15 1015.7 - - - - - - - - -
24/09:00am 22.3 SE 14 15 1015.9 - - - - - - - - -
24/08:30am 20.8 SE 11 13 1016.0 - - - - - - - - -
24/08:00am 20.6 ESE 14 17 1015.8 - - - - - - - - -
24/07:30am 20.6 ESE 14 16 1015.4 - - - - - - - - -
24/07:00am 20.7 ESE 13 16 1015.0 - - - - - - - - -
24/06:30am 20.7 ESE 11 13 1014.6 - - - - - - - - -
24/06:00am 21.6 SE 14 17 1014.4 - - - - - - - - -
24/05:30am 22.1 SE 17 21 1013.8 - - - - - - - - -
24/05:00am 22.2 SE 15 18 1013.4 - - - - - - - - -
24/04:30am 22.4 SE 17 21 1013.4 - - - - - - - - -
24/04:00am 22.7 SE 19 24 1013.0 - - - - - - - - -
24/03:30am 23.2 SE 15 19 1012.8 - - - - - - - - -
24/03:00am 23.6 SSE 18 21 1012.5 - - - - - - - - -
24/02:30am 23.9 SSE 20 23 1012.3 - - - - - - - - -
24/02:00am 24.1 SSE 19 23 1012.1 - - - - - - - - -
24/01:30am 23.8 SSE 18 21 1012.3 - - - - - - - - -
24/01:00am 23.7 SSE 18 21 1012.2 - - - - - - - - -
24/12:30am 23.9 SSE 18 21 1012.1 - - - - - - - - -
24/12:00am 24.3 SSE 17 20 1012.0 - - - - - - - - -

Other Formats:

Comma delimited format used in spreadsheet applications
http://www.bom.gov.au/fwo/IDW60701/IDW60701.95202.axf

JavaScript Object Notation format (JSON) in row-major order
http://www.bom.gov.au/fwo/IDW60701/IDW60701.95202.json